Tiempo atmosférico en la estación meteorológica de Adra,club Naútico, Almería (8 m.)

Fecha
DESCASC
Temp. máxima en grados centígrados (hora)
DESCASC
Temp. mínima en grados centígrados (hora)
DESCASC
Temp. media en grados centígrados
DESCASC
Racha de viento máxima en m/sg (hora)
DESCASC
Velocidad máxima media en intervalos de 10 minutos(hora)
DESCASC
Precipitaciones diarias en mm
DESCASC
Precipitaciones de 00:00 a 06:00 en mm
DESCASC
Precipitaciones de 06:00 a 12:00 en mm
DESCASC
Precipitaciones de 12:00 a 18:00 en mm
DESCASC
Precipitaciones de 18:00 a 24:00 en mm
DESCASC

Gráficas

Temp. máximas Temp. mínimas Temp. medias Precipitaciones Rachas de viento máximas Velocidades máximas media en intervalos de 10 minutos

Datos horarios

Fecha y hora oficial Temperatura (ºC) Velocidad del viento (km/h) Dirección del viento Racha (km/h) Dirección de racha Precipitación (mm) Presión (hPa) Tendencia (hPa) Humedad (%)
2017-11-24 23:00:00 14.3 3 Norte 5 Norte 0 1021.2 -0.4 74
2017-11-24 22:00:00 14.5 2 Norte 6 Noroeste 0 1021.7 0.3 81
2017-11-24 21:00:00 15.1 0 Calma 4 Oeste 0 1021.9 0.6 86
2017-11-24 20:00:00 14.8 3 Norte 5 Noroeste 0 1021.6 0.8 86
2017-11-24 19:00:00 15.8 0 Calma 4 Noroeste 0 1021.4 1.3 92
2017-11-24 18:00:00 15.9 3 Norte 6 Oeste 0 1021.3 2.5 90
2017-11-24 17:00:00 17 5 Oeste 7 Oeste 0 1020.8 2.4 89
2017-11-24 16:00:00 18.7 4 Oeste 9 Sudoeste 0 1020.1 0.9 77
2017-11-24 15:00:00 20.1 3 Sur 8 Sudoeste 0 1018.8 -1.7 71
2017-11-24 14:00:00 20.8 3 Sudoeste 8 Sudoeste 0 1018.4 -2.3 65
2017-11-24 13:00:00 20.7 2 Sudoeste 9 Sur 0 1019.2 -2.1 67
2017-11-24 12:00:00 18.9 4 Sudeste 8 Sur 0 1020.5 -1 70
2017-11-24 11:00:00 20.6 2 Sur 7 Sudoeste 0 1020.7 0.3 71
2017-11-24 10:00:00 19.2 3 Sudoeste 10 Sudoeste 0 1021.3 -0.9 76
2017-11-24 09:00:00 18.1 5 Oeste 9 Sudoeste 0 1021.5 -0.6 73
2017-11-24 08:00:00 19.1 0 Calma 6 Nordeste 0 1020.4 -1.5 64
2017-11-24 07:00:00 13.5 3 Norte 5 Norte 0 1022.2 0.7 76
2017-11-24 06:00:00 13 3 Norte 6 Noroeste 0 1022.1 0.4 82
2017-11-24 05:00:00 13.2 3 Norte 8 Norte 0 1021.9 0.2 85
2017-11-24 04:00:00 13 3 Norte 6 Norte 0 1021.5 -0.4 83
2017-11-24 03:00:00 14 3 Norte 7 Norte 0 1021.7 -0.6 83
2017-11-24 02:00:00 13.8 3 Norte 6 Norte 0 1021.7 -0.7 74
2017-11-24 01:00:00 13.9 3 Norte 5 Norte 0 1021.9 -0.3 82
2017-11-24 00:00:00 14.1 0 Calma 5 Norte 0 1022.3 0.3 82
2017-11-23 23:00:00 14.5 3 Norte 6 Norte 0 1022.4 0.5 77
2017-11-23 22:00:00 14.5 2 Norte 4 Norte 0 1022.2 0.4 77
2017-11-23 21:00:00 15 2 Norte 5 Norte 0 1022 0.4 78
2017-11-23 20:00:00 14.5 2 Norte 7 Norte 0 1021.9 0.9 84
2017-11-23 19:00:00 15.3 0 Calma 4 Noroeste 0 1021.8 1.4 88
2017-11-23 18:00:00 15.7 0 Calma 8 Oeste 0 1021.6 1.7 88
2017-11-23 17:00:00 16.5 5 Oeste 9 Oeste 0 1021 1.9 88
2017-11-23 16:00:00 17.5 6 Oeste 13 Sudoeste 0 1020.4 1.1 82
2017-11-23 15:00:00 18.2 8 Sudoeste 14 Sudoeste 0 1019.9 0.1 78
2017-11-23 14:00:00 18.8 6 Sudoeste 14 Sudoeste 0 1019.1 -1.3 75
2017-11-23 13:00:00 18.7 7 Sudoeste 13 Sudoeste 0 1019.3 -1 73
2017-11-23 12:00:00 18.9 5 Sudoeste 12 Sudoeste 0 1019.8 0.1 70
2017-11-23 11:00:00 18.7 4 Sudoeste 11 Sudoeste 0 1020.4 0.8 65
2017-11-23 10:00:00 17.7 6 Sudoeste 11 Sudoeste 0 1020.3 0.4 68
2017-11-23 09:00:00 18.2 3 Noroeste 9 Oeste 0 1019.7 0.3 68
2017-11-23 08:00:00 16.9 4 Oeste 8 Oeste 0 1019.6 0.9 73
2017-11-23 07:00:00 13.3 3 Norte 6 Norte 0 1019.9 1.5 71
2017-11-23 06:00:00 12.9 5 Norte 8 Norte 0 1019.4 1.2 71
2017-11-23 05:00:00 12.6 4 Norte 6 Norte 0 1018.7 0.6 72
2017-11-23 04:00:00 12.4 2 Norte 9 Norte 0 1018.4 0.3 74
2017-11-23 03:00:00 12.7 4 Norte 8 Norte 0 1018.2 0.1 76
2017-11-23 02:00:00 13 3 Nordeste 6 Norte 0 1018.1 0.2 76
2017-11-23 01:00:00 13.1 3 Norte 7 Noroeste 0 1018.1 0.2 77
2017-11-23 00:00:00 13 2 Norte 6 Norte 0 1018.1 0.3 80
2017-11-22 23:00:00 13.1 2 Norte 5 Nordeste 0 1017.9 0.3 78
2017-11-22 22:00:00 13.7 2 Norte 7 Norte 0 1017.9 0.6 78
2017-11-22 21:00:00 14.4 0 Calma 8 Noroeste 0 1017.8 0.9 80
2017-11-22 20:00:00 14.7 3 Norte 8 Oeste 0 1017.6 1.3 81
2017-11-22 19:00:00 15.1 3 Noroeste 7 Noroeste 0 1017.3 1.5 83
2017-11-22 18:00:00 14.9 4 Norte 6 Noroeste 0 1016.9 1.7 87
2017-11-22 17:00:00 15.9 2 Oeste 12 Noroeste 0 1016.3 1.3 84
2017-11-22 16:00:00 16.9 9 Oeste 15 Sudoeste 0 1015.8 0.5 81
2017-11-22 15:00:00 18 7 Sudoeste 13 Sudoeste 0 1015.2 -1 72
2017-11-22 14:00:00 18.3 9 Sudoeste 15 Sudoeste 0 1015 -1.9 71
2017-11-22 13:00:00 18.7 8 Sudoeste 14 Sudoeste 0 1015.3 -1.8 59
2017-11-22 12:00:00 19.3 5 Sudoeste 12 Sur 0 1016.2 -0.7 55
2017-11-22 11:00:00 20.2 0 Calma 8 Sur 0 1016.9 -0.4 51
2017-11-22 10:00:00 20.1 2 Sur 7 Sudoeste 0 1017.1 -1.1 48
2017-11-22 09:00:00 20.2 2 Sur 8 Sur 0 1016.9 -1.1 40
2017-11-22 08:00:00 18 0 Calma 10 Norte 0 1017.3 -0.8 45
2017-11-22 07:00:00 14.9 3 Norte 19 Norte 0 1018.2 0 44
2017-11-22 06:00:00 14.5 4 Nordeste 13 Norte 0 1018 -0.9 50
2017-11-22 05:00:00 12.9 3 Nordeste 8 Este 0 1018.1 -1.2 60
2017-11-22 04:00:00 13 3 Norte 8 Nordeste 0 1018.2 -1.4 66
2017-11-22 03:00:00 12.9 2 Nordeste 8 Norte 0 1018.9 -1.4 61
2017-11-22 02:00:00 12.9 3 Norte 6 Norte 0 1019.3 -1.6 59
2017-11-22 01:00:00 13 4 Norte 8 Norte 0 1019.6 -1.2 59
2017-11-22 00:00:00 13.4 2 Norte 6 Norte 0 1020.3 -0.3 60
2017-11-21 23:00:00 13.2 0 Calma 6 Norte 0 1020.9 0.2 66
2017-11-21 22:00:00 13.8 3 Norte 6 Norte 0 1020.8 0 64
2017-11-21 21:00:00 14.3 3 Norte 5 Norte 0 1020.6 -0.1 67
2017-11-21 20:00:00 14.5 0 Calma 7 Noroeste 0 1020.7 0.4 77
2017-11-21 19:00:00 14.8 2 Norte 4 Norte 0 1020.8 1.2 76
2017-11-21 18:00:00 15.1 0 Calma 4 Norte 0 1020.7 1.6 84
2017-11-21 17:00:00 16.3 0 Calma 6 Noroeste 0 1020.3 1.1 84
2017-11-21 16:00:00 18.2 4 Sudoeste 9 Sudoeste 0 1019.6 0.3 73
2017-11-21 15:00:00 18.8 4 Sudoeste 10 Sudoeste 0 1019.1 -1.8 73
2017-11-21 14:00:00 19.1 4 Sudoeste 11 Sudoeste 0 1019.2 -3.2 72
2017-11-21 13:00:00 20.4 2 Sur 10 Sudoeste 0 1019.3 -3.4 65
2017-11-21 12:00:00 19.4 6 Sudoeste 15 Sur 0 1020.9 -1.1 65
2017-11-21 11:00:00 18.4 9 Sudoeste 14 Sudoeste 0 1022.4 1.1 70
2017-11-21 10:00:00 18.2 9 Sudoeste 15 Sudoeste 0 1022.7 0 67
2017-11-21 09:00:00 18.9 4 Sudoeste 9 Sudoeste 0 1022 -0.9 50
2017-11-21 08:00:00 18.8 0 Calma 5 Nordeste 0 1021.3 -1.5 43
2017-11-21 07:00:00 13.9 0 Calma 7 Nordeste 0 1022.7 -0.2 54
2017-11-21 06:00:00 12.7 3 Nordeste 6 Norte 0 1022.9 -0.4 64
2017-11-21 05:00:00 13.1 4 Nordeste 8 Nordeste 0 1022.8 -0.7 61
2017-11-21 04:00:00 13.1 3 Norte 5 Norte 0 1022.9 -1.1 65
2017-11-21 03:00:00 13.9 0 Calma 16 Este 0 1023.3 -0.6 56
2017-11-21 02:00:00 15.5 3 Nordeste 11 Norte 0 1023.5 -0.3 45
2017-11-21 01:00:00 13.8 2 Norte 9 Nordeste 0 1024 0.5 59
2017-11-21 00:00:00 13.8 3 Nordeste 12 Este 0 1023.9 0.6 59
2017-11-20 23:00:00 14.4 5 Nordeste 12 Este 0 1023.8 0.3 65
2017-11-20 22:00:00 14.2 4 Norte 6 Norte 0 1023.5 -0.1 74
2017-11-20 21:00:00 14.7 3 Norte 5 Norte 0 1023.3 0.3 76
2017-11-20 20:00:00 15 2 Norte 6 Norte 0 1023.5 0.9 80
2017-11-20 19:00:00 15.3 3 Norte 6 Norte 0 1023.6 1.6 80
2017-11-20 18:00:00 15.9 2 Norte 5 Nordeste 0 1023 1.4 87
2017-11-20 17:00:00 17.3 2 Este 8 Este 0 1022.6 2.2 87
2017-11-20 16:00:00 18.4 4 Este 9 Sudeste 0 1022 0.8 82
2017-11-20 15:00:00 18.8 6 Sudeste 9 Sudeste 0 1021.6 -0.8 76
2017-11-20 14:00:00 20.7 0 Calma 6 Sudeste 0 1020.4 -3.3 66
2017-11-20 13:00:00 21.2 0 Calma 6 Sudeste 0 1021.2 -2.6 60
2017-11-20 12:00:00 21.2 0 Calma 9 Sudeste 0 1022.4 -1.1 61
2017-11-20 11:00:00 19.1 6 Sudeste 14 Sudeste 0 1023.7 1.4 61
2017-11-20 10:00:00 18.4 8 Sudeste 15 Sudeste 0 1023.8 0.5 51
2017-11-20 09:00:00 17.6 8 Este 14 Este 0 1023.5 0 53
2017-11-20 08:00:00 19 0 Calma 13 Norte 0 1022.3 -0.8 43
2017-11-20 07:00:00 14.6 4 Nordeste 11 Este 0 1023.3 0.3 50
2017-11-20 06:00:00 14 3 Norte 15 Norte 0 1023.5 0.5 51
2017-11-20 05:00:00 13.8 0 Calma 18 Este 0 1023.1 -0.1 56
2017-11-20 04:00:00 13.3 0 Calma 7 Noroeste 0 1023 -0.2 65
2017-11-20 03:00:00 13.9 3 Norte 6 Norte 0 1023 -0.2 67
2017-11-20 02:00:00 14 3 Norte 9 Norte 0 1023.2 -0.2 70
2017-11-20 01:00:00 14.6 3 Nordeste 9 Nordeste 0 1023.2 0 64
2017-11-20 00:00:00 15.7 3 Nordeste 15 Norte 0 1023.2 0.2 62
2017-11-19 23:00:00 15.4 4 Nordeste 13 Nordeste 0 1023.4 0.8 67
2017-11-19 22:00:00 15.5 4 Nordeste 10 Nordeste 0 1023.2 0.9 71
2017-11-19 21:00:00 15.8 3 Este 9 Este 0 1023 1.1 76
2017-11-19 20:00:00 15.7 4 Este 8 Este 0 1022.6 1.1 86
2017-11-19 19:00:00 16 0 Calma 4 Norte 0 1022.3 1.7 87
2017-11-19 18:00:00 16.9 0 Calma 6 Este 0 1021.9 2 86
2017-11-19 17:00:00 17.4 0 Calma 9 Nordeste 0 1021.5 2.1 84
2017-11-19 16:00:00 18.5 5 Sudeste 10 Sudeste 0 1020.6 0.8 78
2017-11-19 15:00:00 18.8 5 Sudeste 12 Sudeste 0 1019.9 -0.8 76
2017-11-19 14:00:00 19.1 6 Sudeste 18 Sudeste 0 1019.4 -2 74
2017-11-19 13:00:00 18.7 11 Sudeste 19 Sudeste 0 1019.8 -1.9 73
2017-11-19 12:00:00 19 10 Sudeste 17 Sudeste 0 1020.7 -1.1 71
2017-11-19 11:00:00 19 10 Sudeste 19 Sudeste 0 1021.4 -0.1 66
2017-11-19 10:00:00 18.8 8 Este 18 Este 0 1021.7 0 65
2017-11-19 09:00:00 17.4 7 Este 14 Este 0 1021.8 0.5 62
2017-11-19 08:00:00 16.8 5 Nordeste 14 Norte 0 1021.5 0.8 62
2017-11-19 07:00:00 14.7 4 Nordeste 15 Norte 0 1021.7 0.8 69
2017-11-19 06:00:00 14.7 5 Nordeste 19 Norte 0 1021.3 0.2 70
2017-11-19 05:00:00 14.4 5 Nordeste 14 Norte 0 1020.7 -0.6 72
2017-11-19 04:00:00 14.1 4 Nordeste 13 Norte 0 1020.9 -0.3 76
2017-11-19 03:00:00 14.2 0 Calma 8 Este 0 1021.1 -0.1 81
2017-11-19 02:00:00 14.6 2 Norte 7 Este 0 1021.3 0.2 82
2017-11-19 01:00:00 14.2 2 Nordeste 9 Nordeste 0 1021.2 0.2 85
2017-11-19 00:00:00 14.4 0 Calma 7 Nordeste 0 1021.2 0.3 84
2017-11-18 23:00:00 14.6 0 Calma 8 Nordeste 0 1021.1 0.5 82
2017-11-18 22:00:00 15.1 2 Norte 9 Nordeste 0 1021 0.6 80
2017-11-18 21:00:00 15.1 3 Nordeste 16 Este 0 1020.9 0.8 80
2017-11-18 20:00:00 15.4 5 Nordeste 14 Este 0 1020.6 0.9 81
2017-11-18 19:00:00 15.7 0 Calma 6 Nordeste 0 1020.4 1.6 82
2017-11-18 18:00:00 16.2 0 Calma 5 Nordeste 0 1020.1 2.1 80
2017-11-18 17:00:00 16.7 0 Calma 4 Sudeste 0 1019.7 1.8 76
2017-11-18 16:00:00 18.2 3 Sudeste 6 Sudeste 0 1018.8 0.7 71
2017-11-18 15:00:00 18.3 4 Sudeste 8 Sur 0 1018 -1.4 70
2017-11-18 14:00:00 18.3 4 Sudeste 8 Sur 0 1017.9 -2.2 70
2017-11-18 13:00:00 19 3 Sur 9 Sur 0 1018.1 -2.1 68
2017-11-18 12:00:00 18.6 4 Sudeste 9 Sur 0 1019.4 -0.4 70
2017-11-18 11:00:00 18.3 4 Sudeste 8 Sudeste 0 1020.1 0 70
2017-11-18 10:00:00 17.7 5 Sudeste 9 Sudeste 0 1020.2 -0.1 71
2017-11-18 09:00:00 17.4 4 Este 10 Este 0 1019.8 -1 66
2017-11-18 08:00:00 16.2 7 Nordeste 20 Este 0 1020.1 -0.5 55
2017-11-18 07:00:00 15.3 6 Norte 13 Norte 0 1020.3 -0.2 62
2017-11-18 06:00:00 13 0 Calma 6 Norte 0 1020.8 0 75
2017-11-18 05:00:00 13.9 3 Norte 6 Noroeste 0 1020.6 -0.2 75
2017-11-18 04:00:00 13.9 3 Nordeste 6 Norte 0 1020.5 -0.3 73
2017-11-18 03:00:00 13.3 0 Calma 5 Este 0 1020.8 -0.1 76
2017-11-18 02:00:00 13.7 2 Nordeste 5 Nordeste 0 1020.8 -0.1 77
2017-11-18 01:00:00 13.7 0 Calma 8 Norte 0 1020.8 -0.3 77
2017-11-18 00:00:00 13.8 3 Norte 13 Nordeste 0 1020.9 -0.4 77
2017-11-17 23:00:00 14.3 7 Este 15 Este 0 1020.9 0.1 74
2017-11-17 22:00:00 14.2 7 Este 15 Nordeste 0 1021.1 0.4 77
2017-11-17 21:00:00 14.5 0 Calma 4 Nordeste 0 1021.3 0.9 80
2017-11-17 20:00:00 15.1 0 Calma 6 Nordeste 0 1020.8 0.9 77
2017-11-17 19:00:00 15.2 0 Calma 4 Este 0 1020.7 2.1 77
2017-11-17 18:00:00 15.4 0 Calma 5 Noroeste 0 1020.4 2.5 77
2017-11-17 17:00:00 16 0 Calma 6 Sudoeste 0 1019.9 1.8 75
2017-11-17 16:00:00 18.8 0 Calma 8 Sudoeste 0 1018.6 0.1 66
2017-11-17 15:00:00 19.5 3 Sudoeste 10 Sudoeste 0 1017.9 -1.8 65
2017-11-17 14:00:00 18.9 4 Sudoeste 13 Sudoeste 0 1018.1 -2.6 65
2017-11-17 13:00:00 19.3 5 Sudoeste 12 Sudoeste 0 1018.5 -2.4 64
2017-11-17 12:00:00 19.5 5 Sudoeste 9 Sudoeste 0 1019.7 -0.9 62
2017-11-17 11:00:00 19.1 4 Sur 9 Sur 0 1020.7 -0.1 65
2017-11-17 10:00:00 18.5 3 Sudeste 8 Sudeste 0 1020.9 -0.5 65
2017-11-17 09:00:00 17.9 3 Este 10 Nordeste 0 1020.6 -1.1 60
2017-11-17 08:00:00 16.6 6 Norte 12 Norte 0 1020.8 -0.4 65
2017-11-17 07:00:00 14.6 5 Norte 10 Norte 0 1021.4 0.2 72
2017-11-17 06:00:00 13 0 Calma 6 Nordeste 0 1021.7 0.5 74
2017-11-17 05:00:00 13.1 0 Calma 6 Este 0 1021.2 -0.4 74
2017-11-17 04:00:00 13.5 0 Calma 7 Nordeste 0 1021.2 -0.4 73
2017-11-17 03:00:00 13.6 3 Nordeste 9 Norte 0 1021.2 -0.7 73
2017-11-17 02:00:00 13.5 0 Calma 6 Norte 0 1021.6 -0.4 74
2017-11-17 01:00:00 13.9 0 Calma 11 Nordeste 0 1021.6 -0.3 71
2017-11-17 00:00:00 14.1 0 Calma 7 Nordeste 0 1021.9 0.3 70
2017-11-16 23:00:00 14.3 3 Nordeste 9 Este 0 1022 0.6 71
2017-11-16 22:00:00 14.7 2 Nordeste 9 Norte 0 1021.9 0.7 70
2017-11-16 21:00:00 15.1 4 Nordeste 10 Norte 0 1021.6 0.9 71
2017-11-16 20:00:00 14.7 0 Calma 6 Este 0 1021.4 1.3 77
2017-11-16 19:00:00 14.8 3 Norte 6 Norte 0 1021.2 2.5 76
2017-11-16 18:00:00 14.9 3 Norte 6 Norte 0 1020.7 2.9 76
2017-11-16 17:00:00 16.2 0 Calma 8 Noroeste 0 1020.1 2.4 73
2017-11-16 16:00:00 18.7 2 Sur 8 Sur 0 1018.7 0.5 65
2017-11-16 15:00:00 19.6 2 Sur 10 Sudoeste 0 1017.8 -1.5 63
2017-11-16 14:00:00 19 5 Sudoeste 13 Sudoeste 0 1017.7 -2.3 64
2017-11-16 13:00:00 18.8 5 Sudoeste 12 Sudoeste 0 1018.2 -2.4 66
2017-11-16 12:00:00 19.1 4 Sudoeste 11 Sudoeste 0 1019.3 -0.6 65
2017-11-16 11:00:00 19.8 2 Sur 9 Sur 0 1020 -0.1 62
2017-11-16 10:00:00 18 4 Sudeste 8 Sudeste 0 1020.6 0.1 62
2017-11-16 09:00:00 18.2 0 Calma 8 Este 0 1019.9 -0.5 58
2017-11-16 08:00:00 16.1 5 Nordeste 9 Nordeste 0 1020.1 0 54
2017-11-16 07:00:00 13.5 2 Nordeste 6 Norte 0 1020.5 0.5 72
2017-11-16 06:00:00 12.3 0 Calma 6 Nordeste 0 1020.4 0.3 77
2017-11-16 05:00:00 12.6 0 Calma 6 Norte 0 1020.1 -0.1 78
2017-11-16 04:00:00 13 0 Calma 5 Nordeste 0 1020 -0.3 78
2017-11-16 03:00:00 13.1 0 Calma 5 Nordeste 0 1020.1 -0.1 77
2017-11-16 02:00:00 13.3 2 Norte 6 Norte 0 1020.2 -0.3 77
2017-11-16 01:00:00 13.6 0 Calma 5 Nordeste 0 1020.3 -0.2 77
2017-11-16 00:00:00 13.8 0 Calma 6 Norte 0 1020.2 -0.1 76
2017-11-15 23:00:00 14 0 Calma 4 Norte 0 1020.5 0.2 76
2017-11-15 22:00:00 14.3 0 Calma 8 Este 0 1020.5 0.6 73
2017-11-15 21:00:00 14.4 3 Norte 10 Norte 0 1020.3 0.7 73
2017-11-15 20:00:00 14.6 3 Norte 8 Norte 0 1020.3 1.2 72
2017-11-15 19:00:00 14.9 3 Norte 9 Norte 0 1019.9 2 71
2017-11-15 18:00:00 15.2 5 Norte 8 Norte 0 1019.6 2.1 69
2017-11-15 17:00:00 16.5 2 Nordeste 6 Sudeste 0 1019.1 1.5 66
2017-11-15 16:00:00 18.4 2 Sudeste 10 Sur 0 1017.9 -0.3 60
2017-11-15 15:00:00 18.5 5 Sudeste 13 Sudeste 0 1017.5 -1.9 59
2017-11-15 14:00:00 18.3 6 Sudeste 12 Sudeste 0 1017.6 -2.8 59
2017-11-15 13:00:00 18.2 7 Sudeste 13 Sudeste 0 1018.2 -3 60
2017-11-15 12:00:00 17.9 8 Sudeste 13 Sudeste 0 1019.4 -1 60
2017-11-15 11:00:00 18.2 7 Sudeste 12 Sudeste 0 1020.4 -0.8 59
2017-11-15 10:00:00 18.3 4 Sudeste 10 Sudeste 0 1021.2 -0.5 52
2017-11-15 09:00:00 18.9 3 Nordeste 15 Norte 0 1020.4 -1.1 48
2017-11-15 08:00:00 15.9 9 Norte 20 Norte 0 1021.2 -0.3 54
2017-11-15 07:00:00 13.9 9 Norte 19 Norte 0 1021.7 0.6 56
2017-11-15 06:00:00 13.6 9 Norte 18 Nordeste 0 1021.5 0.2 58
2017-11-15 05:00:00 13.3 7 Norte 20 Norte 0 1021.5 0.1 57
2017-11-15 04:00:00 14.3 8 Norte 19 Norte 0 1021.1 -0.2 53
2017-11-15 03:00:00 13.3 9 Norte 22 Norte 0 1021.3 -0.1 58
2017-11-15 02:00:00 13.8 8 Norte 19 Norte 0 1021.4 -0.1 60
2017-11-15 01:00:00 13.3 8 Norte 19 Norte 0 1021.3 -0.1 62
2017-11-15 00:00:00 13.5 8 Norte 20 Nordeste 0 1021.4 0.5 64
2017-11-14 23:00:00 13.9 5 Nordeste 13 Norte 0 1021.5 1.2 64
2017-11-14 22:00:00 14.4 4 Nordeste 15 Norte 0 1021.4 1.7 64
2017-11-14 21:00:00 14.9 4 Norte 12 Norte 0 1020.9 1.6 64
2017-11-14 20:00:00 15.1 6 Norte 13 Noroeste 0 1020.3 1.7 62
2017-11-14 19:00:00 15 3 Nordeste 9 Norte 0 1019.7 2.1 64
2017-11-14 18:00:00 15.3 2 Norte 9 Este 0 1019.3 2.4 64
2017-11-14 17:00:00 16.1 4 Este 18 Nordeste 0 1018.6 2.1 61
2017-11-14 16:00:00 16.6 11 Nordeste 17 Nordeste 0 1017.6 0.8 61
2017-11-14 15:00:00 17.1 9 Sudeste 16 Sudeste 0 1016.9 -0.7 56
2017-11-14 14:00:00 17 8 Sudeste 14 Sudeste 0 1016.5 -1.9 55
2017-11-14 13:00:00 17.2 6 Sudeste 12 Sudeste 0 1016.8 -1.9 52
2017-11-14 12:00:00 17.6 8 Sudeste 13 Sudeste 0 1017.6 -1.4 53
2017-11-14 11:00:00 17.6 6 Sudeste 15 Sudeste 0 1018.4 0.7 50
2017-11-14 10:00:00 17.5 7 Nordeste 12 Nordeste 0 1018.7 0.4 50
2017-11-14 09:00:00 16.5 3 Este 13 Este 0 1019 1.4 48
2017-11-14 08:00:00 17.2 4 Norte 10 Nordeste 0 1017.7 0.6 51
2017-11-14 07:00:00 15.4 2 Nordeste 12 Nordeste 0 1018.3 1.6 55
2017-11-14 06:00:00 15.8 4 Norte 9 Nordeste 0 1017.6 0.8 56
2017-11-14 05:00:00 15.9 3 Nordeste 10 Nordeste 0 1017.1 0 58
2017-11-14 04:00:00 15.7 5 Norte 13 Nordeste 0 1016.7 -0.6 59
2017-11-14 03:00:00 15.8 5 Norte 14 Norte 0 1016.8 -0.4 60
2017-11-14 02:00:00 15.8 5 Norte 12 Norte 0 1017.1 -0.7 61
2017-11-14 01:00:00 15.9 6 Norte 11 Norte 0 1017.3 -0.2 60
2017-11-14 00:00:00 16.3 4 Norte 10 Norte 0 1017.2 0.3 60
2017-11-13 23:00:00 16 3 Nordeste 10 Este 0 1017.8 1.1 62
2017-11-13 22:00:00 16.7 4 Nordeste 15 Nordeste 0 1017.5 1.4 61
2017-11-13 21:00:00 17 3 Nordeste 14 Este 0 1016.9 1.2 61
2017-11-13 20:00:00 17.7 3 Nordeste 15 Este 0 1016.7 1.8 64
2017-11-13 19:00:00 18 3 Nordeste 12 Nordeste 0 1016.1 2.5 61
2017-11-13 18:00:00 18.3 3 Nordeste 15 Nordeste 0 1015.7 3.4 66
2017-11-13 17:00:00 18 2 Nordeste 16 Este 0 1014.9 4 80
2017-11-13 16:00:00 18.9 11 Sudeste 20 Sudeste 0 1013.6 1.1 73
2017-11-13 15:00:00 19.9 5 Sudeste 10 Sudeste 0 1012.3 -1.1 66
2017-11-13 14:00:00 20.8 2 Sur 18 Oeste 0 1010.9 -3.6 71
2017-11-13 13:00:00 19.5 10 Oeste 15 Oeste 0 1012.5 -2.4 76
2017-11-13 12:00:00 19.9 9 Sudoeste 15 Oeste 0 1013.4 -0.5 66
2017-11-13 11:00:00 19.3 9 Oeste 16 Oeste 0 1014.5 0.1 75
2017-11-13 10:00:00 19 9 Oeste 16 Oeste 0 1014.9 -0.5 66
2017-11-13 09:00:00 21.6 0 Calma 6 Sudoeste 0 1013.9 -1.9 55
2017-11-13 08:00:00 19.2 0 Calma 5 Norte 0 1014.4 -1.4 56
2017-11-13 07:00:00 15.2 3 Norte 8 Norte 0 1015.4 -0.6 56
2017-11-13 06:00:00 14 3 Norte 9 Norte 0 1015.8 -0.4 55
2017-11-13 05:00:00 14.1 4 Norte 9 Norte 0 1015.8 -0.7 61
2017-11-13 04:00:00 14.1 3 Norte 6 Norte 0 1016 -0.3 60
2017-11-13 03:00:00 14.2 2 Norte 7 Norte 0 1016.2 -0.8 58
2017-11-13 02:00:00 15.3 2 Norte 8 Noroeste 0 1016.5 -1.1 50
2017-11-13 01:00:00 15.2 3 Norte 7 Norte 0 1016.3 -1.3 61
2017-11-13 00:00:00 14.4 3 Norte 10 Este 0 1017 -0.5 61
2017-11-12 23:00:00 14.7 2 Nordeste 9 Norte 0 1017.6 -0.4 76
2017-11-12 22:00:00 14.5 3 Nordeste 24 Este 0 1017.6 0 72
2017-11-12 21:00:00 15.6 4 Este 11 Este 0 1017.5 -0.1 86
2017-11-12 20:00:00 15.8 0 Calma 10 Nordeste 0 1018 0.7 86
2017-11-12 19:00:00 15.9 2 Norte 6 Este 0 1017.6 0.3 87
2017-11-12 18:00:00 16.7 2 Noroeste 7 Oeste 0 1017.6 0.6 87
2017-11-12 17:00:00 17.3 6 Oeste 18 Oeste 0 1017.3 -0.4 86
2017-11-12 16:00:00 17.8 15 Oeste 25 Sudoeste 0 1017.3 -1 83
2017-11-12 15:00:00 17.9 15 Sudoeste 27 Sudoeste 0 1017 -1.7 79
2017-11-12 14:00:00 17.6 18 Oeste 29 Oeste 0 1017.7 -2.2 78
2017-11-12 13:00:00 18.1 18 Oeste 32 Oeste 0 1018.3 -2.3 76
2017-11-12 12:00:00 18 20 Oeste 31 Oeste 0 1018.7 -2.6 75
2017-11-12 11:00:00 18 18 Oeste 25 Oeste 0 1019.9 -0.8 71
2017-11-12 10:00:00 18.3 10 Sudoeste 20 Oeste 0 1020.6 -1.3 61
2017-11-12 09:00:00 17.7 13 Oeste 20 Sudoeste 0 1021.3 -1.4 65
2017-11-12 08:00:00 19.3 0 Calma 5 Norte 0 1020.7 -2 57
2017-11-12 07:00:00 15.2 4 Norte 8 Noroeste 0 1021.9 -1 62
2017-11-12 06:00:00 13.4 5 Norte 8 Norte 0 1022.7 -0.2 64
2017-11-12 05:00:00 13.5 3 Norte 6 Norte 0 1022.7 -0.5 64
2017-11-12 04:00:00 13.5 3 Norte 5 Norte 0 1022.9 -0.6 65
2017-11-12 03:00:00 13.8 2 Norte 8 Norte 0 1022.9 -1.2 65
2017-11-12 02:00:00 13.8 4 Norte 8 Norte 0 1023.2 -1.5 67
2017-11-12 01:00:00 14 0 Calma 5 Norte 0 1023.5 -1.7 69
2017-11-12 00:00:00 14.2 3 Norte 6 Norte 0 1024.1 -1.2 69
2017-11-11 23:00:00 14.4 0 Calma 7 Norte 0 1024.7 -0.5 70
2017-11-11 22:00:00 14.8 2 Norte 6 Norte 0 1025.2 0.2 69
2017-11-11 21:00:00 15.1 5 Norte 7 Norte 0 1025.3 0.6 71
2017-11-11 20:00:00 15.4 2 Norte 8 Norte 0 1025.2 0.8 71
2017-11-11 19:00:00 15.5 3 Nordeste 8 Nordeste 0 1025 1.8 71
2017-11-11 18:00:00 15.7 3 Norte 7 Oeste 0 1024.7 1.9 70
2017-11-11 17:00:00 16.8 4 Noroeste 8 Sudoeste 0 1024.4 1.6 68
2017-11-11 16:00:00 18.8 3 Sudoeste 13 Sudoeste 0 1023.2 -0.2 62
2017-11-11 15:00:00 18.4 8 Sudoeste 19 Sudoeste 0 1022.8 -1.2 62
2017-11-11 14:00:00 18.6 12 Sudoeste 21 Sudoeste 0 1022.8 -2.2 66
2017-11-11 13:00:00 18 15 Sudoeste 23 Sudoeste 0 1023.4 -2 70
2017-11-11 12:00:00 18.2 12 Sudoeste 23 Sudoeste 0 1024 -1 61
2017-11-11 11:00:00 18 11 Oeste 17 Sudoeste 0 1025 0 58
2017-11-11 10:00:00 18.3 8 Sudoeste 13 Sudoeste 0 1025.4 -0.8 55
2017-11-11 09:00:00 19 5 Sudoeste 10 Sudoeste 0 1025 -1.5 50
2017-11-11 08:00:00 18.1 0 Calma 6 Este 0 1025 -1.5 49
2017-11-11 07:00:00 15.1 3 Nordeste 6 Nordeste 0 1026.2 -0.4 54
2017-11-11 06:00:00 13.7 4 Norte 8 Noroeste 0 1026.5 0.1 59
2017-11-11 05:00:00 13.1 3 Norte 6 Nordeste 0 1026.5 -0.7 61
2017-11-11 04:00:00 13.3 6 Norte 8 Norte 0 1026.6 -1 61
2017-11-11 03:00:00 13.5 2 Norte 6 Nordeste 0 1026.4 -1.7 63
2017-11-11 02:00:00 14.2 3 Nordeste 7 Norte 0 1027.2 -1.3 61
2017-11-11 01:00:00 14.1 2 Norte 8 Noroeste 0 1027.6 -0.9 65
2017-11-11 00:00:00 15 2 Norte 10 Oeste 0 1028.1 -0.5 65
2017-11-10 23:00:00 15.4 3 Norte 12 Noroeste 0 1028.5 0.1 65
2017-11-10 22:00:00 15.4 3 Noroeste 8 Oeste 0 1028.5 0.5 63
2017-11-10 21:00:00 15.5 3 Norte 10 Noroeste 0 1028.6 0.8 60
2017-11-10 20:00:00 15.7 3 Noroeste 10 Noroeste 0 1028.4 1.2 62
2017-11-10 19:00:00 16 4 Noroeste 11 Noroeste 0 1028 1.9 60
2017-11-10 18:00:00 16.4 4 Oeste 20 Oeste 0 1027.8 2.8 60
2017-11-10 17:00:00 16.8 10 Noroeste 20 Noroeste 0 1027.2 2.8 60
2017-11-10 16:00:00 17.8 10 Noroeste 18 Noroeste 0 1026.1 1.5 56
2017-11-10 15:00:00 19 6 Sudoeste 17 Sudoeste 0 1025 -0.1 52
2017-11-10 14:00:00 19.1 8 Sudoeste 23 Sudoeste 0 1024.4 -1.2 51
2017-11-10 13:00:00 18.6 11 Sudoeste 21 Sudoeste 0 1024.6 -0.7 51
2017-11-10 12:00:00 18.5 12 Sudoeste 19 Sudoeste 0 1025.1 0.5 49
2017-11-10 11:00:00 18.4 8 Sudoeste 14 Sudoeste 0 1025.6 0.5 48
2017-11-10 10:00:00 19 5 Sudoeste 12 Sudoeste 0 1025.3 -0.4 48
2017-11-10 09:00:00 19.2 3 Sudoeste 14 Nordeste 0 1024.6 -0.9 46
2017-11-10 08:00:00 16.4 4 Nordeste 15 Este 0 1025.1 0.1 50
2017-11-10 07:00:00 14.8 4 Nordeste 18 Norte 0 1025.7 0.7 54
2017-11-10 06:00:00 13.6 9 Norte 19 Norte 0 1025.5 0.3 55
2017-11-10 05:00:00 13.4 4 Nordeste 17 Norte 0 1025 -0.2 56
2017-11-10 04:00:00 14.3 6 Norte 21 Norte 0 1025 -0.4 54
2017-11-10 03:00:00 13.8 11 Norte 19 Norte 0 1025.2 -0.5 54
2017-11-10 02:00:00 13.9 4 Nordeste 18 Norte 0 1025.2 -0.7 54
2017-11-10 01:00:00 14 4 Norte 10 Norte 0 1025.4 0.1 55
2017-11-10 00:00:00 14.1 3 Nordeste 6 Norte 0 1025.7 0.9 54
2017-11-09 23:00:00 14 0 Calma 7 Norte 0 1025.9 1.3 55
2017-11-09 22:00:00 14.5 0 Calma 10 Norte 0 1025.3 1.1 56
2017-11-09 21:00:00 15.2 5 Norte 12 Norte 0 1024.8 1.2 56
2017-11-09 20:00:00 15.2 0 Calma 8 Norte 0 1024.6 1.7 56
2017-11-09 19:00:00 15.8 2 Nordeste 9 Este 0 1024.2 1.9 57
2017-11-09 18:00:00 16.1 2 Nordeste 14 Este 0 1023.6 2.3 56
2017-11-09 17:00:00 16.4 6 Este 24 Este 0 1022.9 2.2 53
2017-11-09 16:00:00 17.4 11 Nordeste 26 Este 0 1022.3 1.9 46
2017-11-09 15:00:00 18 17 Sudeste 31 Sudeste 0 1021.3 0.2 50
2017-11-09 14:00:00 18.2 17 Sudeste 28 Sudeste 0 1020.7 -0.8 49
2017-11-09 13:00:00 18.6 8 Sudeste 14 Sur 0 1020.4 -0.8 50
2017-11-09 12:00:00 18.9 8 Sudeste 16 Sudeste 0 1021.1 0.6 51
2017-11-09 11:00:00 18.8 6 Sur 17 Sur 0 1021.5 0.7 51
2017-11-09 10:00:00 20.6 4 Sur 14 Sur 0 1021.2 -0.2 51
2017-11-09 09:00:00 21 0 Calma 8 Norte 0 1020.5 -0.9 45
2017-11-09 08:00:00 18.6 3 Nordeste 12 Norte 0 1020.8 -0.2 50
2017-11-09 07:00:00 15.9 5 Norte 9 Norte 0 1021.4 0.5 59
2017-11-09 06:00:00 15.1 4 Norte 10 Norte 0 1021.4 0.8 60
2017-11-09 05:00:00 14 0 Calma 4 Nordeste 0 1021 0.3 66
2017-11-09 04:00:00 14.6 0 Calma 12 Norte 0 1020.9 0.2 54
2017-11-09 03:00:00 15.3 3 Este 11 Este 0 1020.6 -0.1 53
2017-11-09 02:00:00 14.4 0 Calma 6 Noroeste 0 1020.7 -0.3 58
2017-11-09 01:00:00 14.7 3 Norte 8 Noroeste 0 1020.7 -0.4 61
2017-11-09 00:00:00 14.5 0 Calma 7 Norte 0 1020.7 -0.3 76
2017-11-08 23:00:00 14.7 0 Calma 5 Norte 0 1021 0.4 66
2017-11-08 22:00:00 14.6 0 Calma 6 Norte 0 1021.1 0.8 77
2017-11-08 21:00:00 15.6 2 Norte 5 Norte 0 1021 1 79
2017-11-08 20:00:00 15.4 3 Norte 7 Norte 0 1020.6 1.4 72
2017-11-08 19:00:00 15.5 3 Norte 8 Norte 0 1020.3 1.3 74
2017-11-08 18:00:00 16.6 3 Norte 18 Oeste 0 1020 1.1 76
2017-11-08 17:00:00 17.4 12 Oeste 19 Oeste 0 1019.2 0.8 77
2017-11-08 16:00:00 17.7 14 Oeste 20 Oeste 0 1019 -0.1 73
2017-11-08 15:00:00 18.2 13 Oeste 20 Oeste 0 1018.9 -1 70
2017-11-08 14:00:00 18.8 11 Sudoeste 19 Sudoeste 0 1018.4 -2.5 66
2017-11-08 13:00:00 18.4 10 Oeste 19 Oeste 0 1019.1 -1.8 70
2017-11-08 12:00:00 18.5 10 Sudoeste 20 Sudoeste 0 1019.9 -0.3 70
2017-11-08 11:00:00 18.6 11 Sudoeste 18 Sudoeste 0 1020.9 1 67
2017-11-08 10:00:00 19 8 Sudoeste 12 Sudoeste 0 1020.9 -0.2 61
2017-11-08 09:00:00 20.1 2 Sudoeste 7 Sur 0 1020.2 -1 59
2017-11-08 08:00:00 20.1 0 Calma 4 Este 0 1019.9 -0.9 56
2017-11-08 07:00:00 15.5 0 Calma 6 Norte 0 1021.1 0.5 61
2017-11-08 06:00:00 14 0 Calma 7 Norte 0 1021.2 0.4 71
2017-11-08 05:00:00 14 0 Calma 6 Norte 0 1020.8 -0.2 67
2017-11-08 04:00:00 13.7 0 Calma 7 Nordeste 0 1020.6 0 67
2017-11-08 03:00:00 14.6 2 Nordeste 8 Norte 0 1020.8 0.1 69
2017-11-08 02:00:00 14.6 2 Nordeste 6 Nordeste 0 1021 0.2 75
2017-11-08 01:00:00 14.8 2 Nordeste 6 Norte 0 1020.6 -0.1 70
2017-11-08 00:00:00 15 3 Norte 6 Norte 0 1020.7 0.1 76
2017-11-07 23:00:00 15.1 2 Norte 6 Norte 0 1020.8 0.7 73
2017-11-07 22:00:00 15.6 0 Calma 8 Nordeste 0 1020.7 0.9 71
2017-11-07 21:00:00 15.8 0 Calma 7 Norte 0 1020.6 1.2 73
2017-11-07 20:00:00 15.7 4 Norte 7 Noroeste 0 1020.1 1.4 71
2017-11-07 19:00:00 16.1 3 Norte 6 Norte 0 1019.8 2.2 70
2017-11-07 18:00:00 17 3 Noroeste 10 Oeste 0 1019.4 2.4 67
2017-11-07 17:00:00 17.5 7 Oeste 13 Oeste 0 1018.7 2 65
2017-11-07 16:00:00 18.8 7 Noroeste 17 Sudoeste 0 1017.6 0.5 60
2017-11-07 15:00:00 19.2 10 Sudoeste 18 Sudoeste 0 1017 -0.8 59
2017-11-07 14:00:00 19.3 10 Sudoeste 18 Sudoeste 0 1016.7 -1.8 55
2017-11-07 13:00:00 19.8 9 Sudoeste 16 Sudoeste 0 1017.1 -1.5 56
2017-11-07 12:00:00 19.6 9 Sudoeste 15 Sudoeste 0 1017.8 -0.3 53
2017-11-07 11:00:00 20.7 3 Sur 13 Sur 0 1018.5 -0.2 53
2017-11-07 10:00:00 20.4 3 Sur 8 Sur 0 1018.6 0 55
2017-11-07 09:00:00 19.6 3 Sudeste 12 Este 0 1018.1 -0.6 56
2017-11-07 08:00:00 17.9 6 Norte 12 Norte 0 1018.7 0.1 60
2017-11-07 07:00:00 16.4 4 Nordeste 15 Norte 0 1018.6 0 66
2017-11-07 06:00:00 15.1 4 Norte 12 Norte 0 1018.7 0.2 70
2017-11-07 05:00:00 15.2 4 Norte 12 Nordeste 0 1018.6 -0.3 69
2017-11-07 04:00:00 15.2 6 Norte 11 Norte 0 1018.6 -0.3 69
2017-11-07 03:00:00 15.3 0 Calma 10 Norte 0 1018.5 -0.8 69
2017-11-07 02:00:00 15.3 2 Nordeste 9 Norte 0 1018.9 -0.6 69
2017-11-07 01:00:00 15.5 0 Calma 8 Norte 0 1018.9 -0.4 66
2017-11-07 00:00:00 15.6 0 Calma 10 Noroeste 0 1019.3 0.4 66
2017-11-06 23:00:00 15.9 3 Norte 6 Norte 0 1019.5 0.7 66
2017-11-06 22:00:00 16.2 0 Calma 5 Noroeste 0 1019.3 0.8 66
2017-11-06 21:00:00 17.2 0 Calma 3 Norte 0 1018.9 0.4 65
2017-11-06 20:00:00 17 0 Calma 4 Norte 0 1018.8 0.2 65
2017-11-06 19:00:00 17.8 0 Calma 7 Nordeste 0 1018.5 0.4 65
2017-11-06 18:00:00 17.9 3 Nordeste 8 Nordeste 0 1018.5 0 66
2017-11-06 17:00:00 18.1 4 Nordeste 9 Norte 0 1018.6 1.3 66
2017-11-06 16:00:00 18.9 5 Norte 14 Nordeste 0 1018.1 -0.1 61
2017-11-06 15:00:00 19 6 Sur 16 Nordeste 0 1018.5 -0.7 59
2017-11-06 14:00:00 21.1 7 Sudoeste 22 Sur 0 1017.3 -2.9 52
2017-11-06 13:00:00 20 17 Sudoeste 27 Sudoeste 0 1018.2 -2.6 61
2017-11-06 12:00:00 19.9 17 Oeste 26 Oeste 0 1019.2 -1.5 66
2017-11-06 11:00:00 19.8 13 Sudoeste 26 Sudoeste 0 1020.2 -0.6 67
2017-11-06 10:00:00 19.8 12 Sudoeste 21 Sudoeste 0 1020.8 -0.4 70
2017-11-06 09:00:00 19.5 13 Oeste 22 Oeste 0 1020.7 -0.1 70
2017-11-06 08:00:00 19.3 8 Oeste 17 Oeste 0 1020.8 0.3 68
2017-11-06 07:00:00 17.6 3 Norte 7 Noroeste 0 1021.2 0.5 71
2017-11-06 06:00:00 17.1 4 Norte 8 Oeste 0 1020.8 0.2 76
2017-11-06 05:00:00 17.5 4 Noroeste 10 Norte 0 1020.5 -0.2 77
2017-11-06 04:00:00 16.8 0 Calma 6 Norte 0 1020.7 0 73
2017-11-06 03:00:00 17.2 2 Norte 6 Noroeste 0 1020.6 0 69
2017-11-06 02:00:00 18.2 3 Norte 16 Norte 0 1020.7 0 58
2017-11-06 01:00:00 16.9 2 Nordeste 20 Este 0 1020.7 0.2 56
2017-11-06 00:00:00 17.9 7 Este 18 Este 0 1020.6 0.5 53
2017-11-05 23:00:00 17.8 6 Este 13 Este 0 1020.7 1.2 55
2017-11-05 22:00:00 18.6 4 Este 15 Este 0 1020.5 1.4 54
2017-11-05 21:00:00 18.9 5 Este 12 Este 0 1020.1 1.4 56
2017-11-05 20:00:00 19.5 3 Nordeste 11 Este 0 1019.5 1.3 55
2017-11-05 19:00:00 18.7 4 Este 14 Este 0 1019.1 2.1 72
2017-11-05 18:00:00 19.3 3 Nordeste 6 Nordeste 0 1018.7 2.1 83
2017-11-05 17:00:00 20.2 0 Calma 6 Sudoeste 0 1018.2 2.1 76
2017-11-05 16:00:00 21.8 2 Sudoeste 9 Sudoeste 0 1017 0.4 70
2017-11-05 15:00:00 21 5 Sudoeste 12 Sudoeste 0 1016.6 -0.8 72
2017-11-05 14:00:00 21.2 7 Sudoeste 13 Sur 0 1016.1 -2.2 65
2017-11-05 13:00:00 20.8 9 Sudoeste 15 Sudoeste 0 1016.6 -2 60
2017-11-05 12:00:00 21.3 6 Sudoeste 12 Sudoeste 0 1017.4 0 62
2017-11-05 11:00:00 20.4 8 Sudoeste 16 Oeste 0 1018.3 0.6 68
2017-11-05 10:00:00 19.9 10 Oeste 21 Sudoeste 0 1018.6 1.2 70
2017-11-05 09:00:00 21.8 4 Norte 15 Norte 0 1017.4 -0.4 51
2017-11-05 08:00:00 20.1 7 Norte 14 Nordeste 0 1017.7 0.5 56
2017-11-05 07:00:00 18.7 5 Nordeste 18 Norte 0 1017.4 1 61
2017-11-05 06:00:00 17 4 Norte 13 Norte 0 1017.8 1.5 66
2017-11-05 05:00:00 16.8 2 Nordeste 17 Norte 0 1017.2 0.7 71
2017-11-05 04:00:00 17.3 3 Nordeste 15 Norte 0 1016.4 0 66
2017-11-05 03:00:00 17 7 Norte 14 Norte 0 1016.3 -0.5 68
2017-11-05 02:00:00 17 0 Calma 9 Noroeste 0 1016.5 0 68
2017-11-05 01:00:00 18.3 3 Noroeste 28 Oeste 0 1016.4 0.2 66
2017-11-05 00:00:00 17.9 4 Noroeste 23 Oeste 0 1016.8 0.7 66
2017-11-04 23:00:00 18.9 12 Oeste 30 Oeste 0 1016.5 0.8 69
2017-11-04 22:00:00 18.9 16 Oeste 37 Oeste 0 1016.2 1 76
2017-11-04 21:00:00 18.9 14 Oeste 33 Oeste 0 1016.1 1.3 78
2017-11-04 20:00:00 19.2 10 Oeste 27 Oeste 0 1015.7 1.2 78
2017-11-04 19:00:00 18.9 16 Oeste 35 Oeste 0 1015.2 1 83
2017-11-04 18:00:00 18.9 21 Oeste 40 Oeste 0 1014.8 0.9 86
2017-11-04 17:00:00 18.9 26 Oeste 43 Oeste 0 1014.5 1.2 88
2017-11-04 16:00:00 19.2 21 Oeste 37 Oeste 0 1014.2 0.6 84
2017-11-04 15:00:00 19.1 21 Oeste 38 Sudoeste 0 1013.9 -0.5 82
2017-11-04 14:00:00 19.4 23 Oeste 43 Sudoeste 0 1013.3 -1.7 80
2017-11-04 13:00:00 19.5 19 Oeste 39 Oeste 0 1013.6 -1.7 79
2017-11-04 12:00:00 18.8 23 Noroeste 41 Noroeste 0 1014.4 -0.9 84
2017-11-04 11:00:00 19 17 Noroeste 34 Noroeste 0 1015 0.4 86
2017-11-04 10:00:00 18.4 12 Oeste 21 Oeste 0.1 1015.3 0.4 87
2017-11-04 09:00:00 17.6 10 Oeste 24 Oeste 1.2 1015.3 1.2 89
2017-11-04 08:00:00 18.5 0 Calma 24 Oeste 0.2 1014.6 1.2 75
2017-11-04 07:00:00 18.9 4 Oeste 15 Noroeste 0.2 1014.9 1.6 79
2017-11-04 06:00:00 17 0 Calma 6 Noroeste 0 1014.1 1.2 79
2017-11-04 05:00:00 17.4 3 Norte 7 Noroeste 0 1013.4 0.3 78
2017-11-04 04:00:00 17.8 2 Noroeste 13 Oeste 0 1013.3 -0.6 81
2017-11-04 03:00:00 18.3 3 Noroeste 8 Norte 0 1012.9 -1.4 81
2017-11-04 02:00:00 17.6 2 Noroeste 7 Noroeste 0 1013.1 -1.3 90
2017-11-04 01:00:00 19 3 Oeste 15 Norte 0 1013.9 -0.6 92
2017-11-04 00:00:00 18.7 0 Calma 15 Oeste 0 1014.3 -0.2 93
2017-11-03 23:00:00 19.2 8 Noroeste 15 Noroeste 0 1014.4 0.9 94
2017-11-03 22:00:00 19 9 Oeste 17 Oeste 0 1014.5 0.6 94
2017-11-03 21:00:00 19.1 13 Oeste 21 Noroeste 0 1014.5 2 92
2017-11-03 20:00:00 19.2 6 Oeste 21 Norte 0 1013.5 0.3 90
2017-11-03 19:00:00 19.3 12 Noroeste 30 Noroeste 0 1013.9 0.7 89
2017-11-03 18:00:00 19.4 5 Noroeste 26 Norte 0 1012.5 -0.4 86
2017-11-03 17:00:00 19.5 6 Noroeste 17 Noroeste 0 1013.2 0.7 84
2017-11-03 16:00:00 19.9 8 Noroeste 12 Noroeste 0 1013.2 1.1 82
2017-11-03 15:00:00 20.6 2 Norte 9 Noroeste 0 1012.9 -0.3 77
2017-11-03 14:00:00 21.1 2 Sudoeste 7 Sudoeste 0 1012.5 -1.7 73
2017-11-03 13:00:00 21.2 0 Calma 6 Sudoeste 0 1012.1 -2.8 71
2017-11-03 12:00:00 21.8 2 Sudoeste 10 Sudoeste 0 1013.2 -1.1 70
2017-11-03 11:00:00 21.7 4 Sudoeste 8 Sur 0 1014.2 0.4 70
2017-11-03 10:00:00 20.7 4 Oeste 9 Sudoeste 0 1014.9 0.3 75
2017-11-03 09:00:00 21.8 2 Sudoeste 4 Sudoeste 0 1014.3 -0.6 74
2017-11-03 08:00:00 21 0 Calma 4 Este 0 1013.8 -0.8 71
2017-11-03 07:00:00 19 0 Calma 9 Este 0 1014.6 0.2 77
2017-11-03 06:00:00 18.8 0 Calma 9 Oeste 0 1014.9 -0.2 76
2017-11-03 05:00:00 18.6 0 Calma 12 Norte 0 1014.6 -1.4 75
2017-11-03 04:00:00 18.4 5 Norte 21 Norte 0 1014.4 -2 73
2017-11-03 03:00:00 17.6 5 Nordeste 18 Norte 0 1015.1 -1.4 78
2017-11-03 02:00:00 18.2 4 Norte 10 Norte 0 1016 -1.1 80
2017-11-03 01:00:00 18 0 Calma 3 Norte 0 1016.4 -1.1 84
2017-11-03 00:00:00 18.5 0 Calma 8 Norte 0 1016.5 -1 83
2017-11-02 23:00:00 18.9 0 Calma 5 Norte 0 1017.1 -0.4 84
2017-11-02 22:00:00 18.9 0 Calma 6 Nordeste 0 1017.5 0.4 84
2017-11-02 21:00:00 19 0 Calma 6 Noroeste 0 1017.5 0.7 84
2017-11-02 20:00:00 19.2 0 Calma 3 Oeste 0 1017.5 1.1 83
2017-11-02 19:00:00 19.5 0 Calma 5 Noroeste 0 1017.1 1.2 84
2017-11-02 18:00:00 19.6 2 Norte 4 Norte 0 1016.8 1.5 86
2017-11-02 17:00:00 20.3 0 Calma 6 Sur 0 1016.4 1.4 82
2017-11-02 16:00:00 21.9 0 Calma 8 Sudeste 0 1015.9 0.1 73
2017-11-02 15:00:00 22.5 0 Calma 7 Sur 0 1015.3 -1.5 69
2017-11-02 14:00:00 23.8 0 Calma 11 Sudeste 0 1015 -2.9 67
2017-11-02 13:00:00 21.8 7 Sudeste 17 Sudeste 0 1015.8 -2.3 71
2017-11-02 12:00:00 22 8 Sudeste 14 Sudeste 0 1016.8 -1.1 69
2017-11-02 11:00:00 23.4 3 Sudoeste 9 Sur 0 1017.9 -0.4 55
2017-11-02 10:00:00 24.2 0 Calma 8 Sur 0 1018.1 -0.3 52
2017-11-02 09:00:00 23.5 2 Sudoeste 6 Sudoeste 0 1017.9 -0.9 56
2017-11-02 08:00:00 22 3 Oeste 6 Oeste 0 1018.3 -0.3 56
2017-11-02 07:00:00 20.4 0 Calma 17 Norte 0 1018.4 -0.1 54
2017-11-02 06:00:00 18.7 7 Norte 17 Norte 0 1018.8 0.1 59
2017-11-02 05:00:00 18.8 9 Norte 23 Norte 0 1018.6 -0.4 60
2017-11-02 04:00:00 18.9 10 Norte 21 Norte 0 1018.5 -0.6 62
2017-11-02 03:00:00 19 8 Norte 21 Nordeste 0 1018.7 -0.8 65
2017-11-02 02:00:00 19.5 6 Nordeste 21 Norte 0 1019 -1 65
2017-11-02 01:00:00 19.6 8 Nordeste 18 Nordeste 0 1019.1 -1.2 66
2017-11-02 00:00:00 19.5 4 Nordeste 15 Norte 0 1019.5 -0.8 71
2017-11-01 23:00:00 19.4 2 Nordeste 10 Este 0 1020 -0.1 75
2017-11-01 22:00:00 19.3 4 Este 9 Este 0 1020.3 0.3 76
2017-11-01 21:00:00 19.6 3 Este 9 Norte 0 1020.3 0.7 77
2017-11-01 20:00:00 19.5 2 Nordeste 13 Este 0 1020.1 1.3 80
2017-11-01 19:00:00 20.2 3 Este 12 Este 0 1020 1.5 78
2017-11-01 18:00:00 20.6 3 Este 14 Nordeste 0 1019.6 1.5 77
2017-11-01 17:00:00 21.1 8 Este 20 Sudeste 0 1018.8 0.6 76
2017-11-01 16:00:00 21.3 13 Sudeste 28 Sudeste 0 1018.5 -0.3 81
2017-11-01 15:00:00 21.5 20 Sudeste 31 Sudeste 0 1018.1 -1.8 78
2017-11-01 14:00:00 21.7 17 Sudeste 29 Sudeste 0 1018.2 -2.4 77
2017-11-01 13:00:00 21.6 17 Sudeste 30 Sudeste 0 1018.8 -1.5 76
2017-11-01 12:00:00 21.8 14 Sudeste 22 Sudeste 0 1019.9 -0.3 72
2017-11-01 11:00:00 21.9 12 Sudeste 23 Este 0 1020.6 0.3 70
2017-11-01 10:00:00 24.6 0 Calma 11 Este 0 1020.3 -0.4 55
2017-11-01 09:00:00 23.1 3 Este 14 Sudeste 0 1020.2 -0.5 50
2017-11-01 08:00:00 21.6 6 Norte 19 Norte 0 1020.3 0 54
2017-11-01 07:00:00 19.2 9 Norte 21 Norte 0 1020.7 0.5 60
2017-11-01 06:00:00 18.4 9 Norte 23 Nordeste 0 1020.7 0.1 62
2017-11-01 05:00:00 18.3 7 Norte 21 Norte 0 1020.3 -0.3 64
2017-11-01 04:00:00 18.4 10 Norte 21 Norte 0 1020.2 -0.6 65
2017-11-01 03:00:00 18.7 6 Norte 19 Norte 0 1020.6 -0.4 65
2017-11-01 02:00:00 19 7 Nordeste 19 Nordeste 0 1020.6 -0.6 66
2017-11-01 01:00:00 18.7 5 Este 15 Este 0 1020.8 -0.1 71
2017-11-01 00:00:00 18.9 4 Nordeste 10 Este 0 1021 0.2 73
2017-10-31 23:00:00 19.2 0 Calma 9 Nordeste 0 1021.2 0.7 76
2017-10-31 22:00:00 19.7 0 Calma 10 Este 0 1020.9 1 76
2017-10-31 21:00:00 19.7 2 Este -- -- -- 1020.8 1.4 76
2017-10-31 20:00:00 20.4 5 Este 14 Nordeste 0 1020.5 1.5 75
2017-10-31 19:00:00 21.1 4 Este 9 Este 0 1019.9 1.5 76
2017-10-31 18:00:00 20.8 4 Este 13 Este 0 1019.4 1.5 76
2017-10-31 17:00:00 21.3 6 Nordeste 19 Este 0 1019 1.6 75
2017-10-31 16:00:00 21.3 13 Sudeste 21 Sudeste 0 1018.4 1 74
2017-10-31 15:00:00 21.7 8 Sudeste 16 Sudeste 0 1017.9 -0.5 73
2017-10-31 14:00:00 22.2 7 Sudeste 14 Sudeste 0 1017.4 -1.6 71
2017-10-31 13:00:00 21.9 8 Sudeste 22 Sudeste 0 1017.4 -1.6 68
2017-10-31 12:00:00 21.9 14 Sudeste 24 Sudeste 0 1018.4 -0.2 67
2017-10-31 11:00:00 22 14 Sudeste 22 Sudeste 0 1019 0.5 65
2017-10-31 10:00:00 22.3 5 Sudeste 13 Sudeste 0 1019 0.5 57
2017-10-31 09:00:00 22.9 3 Nordeste 13 Norte 0 1018.6 0.3 51
2017-10-31 08:00:00 20.8 5 Nordeste 18 Norte 0 1018.5 0.7 57
2017-10-31 07:00:00 18.8 9 Norte 18 Norte 0 1018.5 0.8 61
2017-10-31 06:00:00 18 11 Norte 19 Norte 0 1018.3 0.9 62
2017-10-31 05:00:00 18.5 5 Nordeste 17 Nordeste 0 1017.8 0.3 61
2017-10-31 04:00:00 18.5 6 Nordeste 16 Norte 0 1017.7 0.2 61
2017-10-31 03:00:00 18.9 6 Nordeste 14 Nordeste 0 1017.4 0 61
2017-10-31 02:00:00 18.6 3 Nordeste 12 Norte 0 1017.5 -0.2 62
2017-10-31 01:00:00 18.9 3 Nordeste 12 Norte 0 1017.5 -0.1 65
2017-10-31 00:00:00 19.1 3 Nordeste 12 Nordeste 0 1017.4 -0.1 66
2017-10-30 23:00:00 19 5 Este 10 Norte 0 1017.7 0.8 66
2017-10-30 22:00:00 19.1 2 Nordeste 12 Este 0 1017.6 1 66
2017-10-30 21:00:00 17.9 6 Nordeste 12 Nordeste 0 1017.5 1.6 71
2017-10-30 20:00:00 19.5 0 Calma 9 Nordeste 0 1016.9 1.5 75
2017-10-30 19:00:00 19.2 3 Nordeste 9 Este 0 1016.6 2.6 64
2017-10-30 18:00:00 20.5 0 Calma 5 Este 0 1015.9 2.6 57
2017-10-30 17:00:00 20.4 0 Calma 4 Sur 0 1015.4 1.5 68
2017-10-30 16:00:00 23.1 0 Calma 5 Sudoeste 0 1014 0.5 62
2017-10-30 15:00:00 23.3 0 Calma 7 Sudoeste 0 1013.3 -1.4 61
2017-10-30 14:00:00 22.3 4 Sudoeste 9 Sur 0 1013.9 -1.7 69
2017-10-30 13:00:00 23.3 3 Sur 9 Sur 0 1013.5 -2.4 67
2017-10-30 12:00:00 23.5 2 Sur 9 Sudoeste 0 1014.7 -1.4 65
2017-10-30 11:00:00 22.4 3 Sudeste 7 Sur 0 1015.6 0.1 65
2017-10-30 10:00:00 21.3 4 Sudeste 10 Sudeste 0 1015.9 -0.1 71
2017-10-30 09:00:00 20.5 6 Sudeste 14 Este 0 1016.1 -0.5 70
2017-10-30 08:00:00 21.1 2 Este 11 Este 0 1015.5 -0.8 61
2017-10-30 07:00:00 19 3 Nordeste 8 Este 0 1016 -0.3 69
2017-10-30 06:00:00 17.8 2 Nordeste 13 Norte 0 1016.6 0.3 71
2017-10-30 05:00:00 17.3 0 Calma 5 Este 0 1016.3 -0.3 73
2017-10-30 04:00:00 17.5 0 Calma 5 Norte 0 1016.3 -0.6 76
2017-10-30 03:00:00 17.7 0 Calma 6 Noroeste 0 1016.3 -1.1 73
2017-10-30 02:00:00 17.8 0 Calma 5 Norte 0 1016.6 -1.4 75
2017-10-30 01:00:00 18.2 0 Calma 5 Norte 0 1016.9 -1.3 76
2017-10-30 00:00:00 18.4 0 Calma 5 Norte 0 1017.4 -1 75
2017-10-29 23:00:00 18.5 0 Calma 3 Noroeste 0 1018 -0.6 78
2017-10-29 22:00:00 19 0 Calma 3 Este 0 1018.2 -0.2 76
2017-10-29 21:00:00 19.3 0 Calma 5 Norte 0 1018.4 0.2 76
2017-10-29 20:00:00 19.3 0 Calma 5 Este 0 1018.6 0.5 76
2017-10-29 19:00:00 20.1 0 Calma 8 Este 0 1018.4 1.4 75
2017-10-29 18:00:00 20.3 2 Este 6 Este 0 1018.2 1.8 80
2017-10-29 17:00:00 21 0 Calma 7 Este 0 1018.1 1.2 76
2017-10-29 16:00:00 22.8 0 Calma 6 Este 0 1017 -0.3 71
2017-10-29 15:00:00 24.2 0 Calma 8 Este 0 1016.4 -2.4 67
2017-10-29 14:00:00 23.1 3 Sudeste 8 Sudeste 0 1016.9 -2.9 65
2017-10-29 13:00:00 23.6 3 Sur 7 Sudeste 0 1017.3 -2.6 58
2017-10-29 12:00:00 24.2 0 Calma 8 Sur 0 1018.8 -1.5 56
2017-10-29 11:00:00 24.5 3 Sur 12 Sudeste 0 1019.8 -0.9 56
2017-10-29 10:00:00 24.5 3 Sudeste 12 Este 0 1019.9 -1.2 52
2017-10-29 09:00:00 23.8 3 Nordeste 13 Norte 0 1020.3 -1.6 49
2017-10-29 08:00:00 22.2 5 Norte 10 Norte 0 1020.7 -0.9 55
2017-10-29 07:00:00 19.9 2 Norte 7 Norte 0 1021.1 -0.5 65
2017-10-29 06:00:00 18 0 Calma 11 Norte 0 1021.9 0.1 72
2017-10-29 05:00:00 18.2 2 Norte 8 Nordeste 0 1021.6 0.1 70
2017-10-29 04:00:00 18.3 0 Calma 5 Norte 0 1021.6 -0.3 72
2017-10-29 03:00:00 18.1 0 Calma 7 Este 0 1021.8 -0.5 75
2017-10-29 02:00:00 18.8 3 Nordeste 11 Este 0 1021.5 -1.2 73
2017-10-29 01:00:00 19.3 0 Calma 5 Este 0 1022.3 -0.6 80
2017-10-29 00:00:00 19.2 0 Calma 6 Norte 0 1022.7 -0.2 81
2017-10-28 23:00:00 19.5 0 Calma 6 Nordeste 0 1022.8 0.1 80
2017-10-28 22:00:00 19.6 0 Calma 7 Este 0 1022.9 0.4 81
2017-10-28 21:00:00 20.7 0 Calma 9 Este 0 1022.9 0.7 80
2017-10-28 20:00:00 20.4 0 Calma 4 Norte 0 1022.7 1.7 87
2017-10-28 19:00:00 20.7 0 Calma 10 Este 0 1022.5 2.3 86
2017-10-28 18:00:00 21.5 0 Calma 8 Nordeste 0 1022.2 2 78
2017-10-28 17:00:00 23.3 0 Calma 9 Nordeste 0 1021 0.3 71
2017-10-28 16:00:00 23.3 0 Calma 8 Este 0 1020.2 -1.7 69
2017-10-28 15:00:00 23.3 2 Sudeste 8 Sur 0 1020.2 -2.5 69
2017-10-28 14:00:00 22.8 3 Sur 10 Sudoeste 0 1020.7 -2.1 70
2017-10-28 13:00:00 23.4 2 Oeste 12 Sudoeste 0 1021.9 -1.1 70
2017-10-28 12:00:00 23.5 3 Sur 8 Sudeste 0 1022.7 0.1 71
2017-10-28 11:00:00 23.4 0 Calma 6 Sur 0 1022.8 -0.5 62
2017-10-28 10:00:00 21.7 4 Sudeste 13 Sudeste 0 1023 -0.2 70
2017-10-28 09:00:00 21 2 Este 8 Este 0 1022.6 0 60
2017-10-28 08:00:00 18.2 2 Nordeste 7 Este 0 1023.3 1.6 82
2017-10-28 07:00:00 17.1 2 Nordeste 13 Nordeste 0 1023.2 1.7 88
2017-10-28 06:00:00 16 6 Este 13 Nordeste 0 1022.6 0.9 68
2017-10-28 05:00:00 16.7 2 Norte 5 Noroeste 0 1021.7 -0.3 73
2017-10-28 04:00:00 16.4 0 Calma 6 Norte 0 1021.5 -1 86
2017-10-28 03:00:00 17.1 3 Norte 5 Noroeste 0 1021.7 -1.4 89
2017-10-28 02:00:00 17.2 2 Norte 4 Norte 0 1022 -1.6 87
2017-10-28 01:00:00 17.9 0 Calma 5 Norte 0 1022.5 -1.4 78
2017-10-28 00:00:00 17.9 0 Calma 4 Noroeste 0 1023.1 -0.5 78
2017-10-27 23:00:00 18.1 0 Calma 4 Norte 0 1023.6 0 78
2017-10-27 22:00:00 18.4 2 Norte 8 Oeste 0 1023.9 0.3 78
2017-10-27 21:00:00 19.3 5 Oeste 13 Oeste 0 1023.6 -0.2 84
2017-10-27 20:00:00 19.7 6 Oeste 13 Oeste 0 1023.6 0.5 88
2017-10-27 19:00:00 19.8 6 Oeste 16 Oeste 0 1023.6 0.3 86
2017-10-27 18:00:00 20.3 9 Oeste 15 Oeste 0 1023.8 0.7 85
2017-10-27 17:00:00 21.4 10 Oeste 17 Oeste 0 1023.1 -0.3 77
2017-10-27 16:00:00 21.5 13 Oeste 18 Oeste 0 1023.3 -1.2 73
2017-10-27 15:00:00 22.5 8 Sudoeste 14 Sudoeste 0 1023.1 -2.4 72
2017-10-27 14:00:00 22.5 8 Sudoeste 15 Sudoeste 0 1023.4 -2.5 70
2017-10-27 13:00:00 22.6 6 Sudoeste 11 Sudoeste 0 1024.5 -0.8 63
2017-10-27 12:00:00 23.2 6 Sudoeste 13 Sudoeste 0 1025.5 0.8 59
2017-10-27 11:00:00 22.6 6 Sudoeste 10 Sudoeste 0 1025.9 0.5 57
2017-10-27 10:00:00 24 3 Sudoeste 7 Sudoeste 0 1025.3 -1 41
2017-10-27 09:00:00 24 0 Calma 3 Nordeste 0 1024.7 -1.3 39
2017-10-27 08:00:00 19.5 0 Calma 5 Norte 0 1025.4 -0.4 55
2017-10-27 07:00:00 17.3 0 Calma 5 Norte 0 1026.3 0.7 59
2017-10-27 06:00:00 17.4 0 Calma 5 Noroeste 0 1026 0.4 66
2017-10-27 05:00:00 17.5 0 Calma 7 Norte 0 1025.8 -0.3 69
2017-10-27 04:00:00 18.1 5 Norte 8 Norte 0 1025.6 -0.8 67
2017-10-27 03:00:00 18.3 0 Calma 6 Norte 0 1025.6 -1 68
2017-10-27 02:00:00 18.8 0 Calma 6 Noroeste 0 1026.1 -0.6 69
2017-10-27 01:00:00 18.8 0 Calma 6 Norte 0 1026.4 -0.1 72
2017-10-27 00:00:00 19 2 Nordeste 5 Nordeste 0 1026.6 0.5 75
2017-10-26 23:00:00 19.4 0 Calma 6 Norte 0 1026.7 1 73
2017-10-26 22:00:00 19.8 0 Calma 6 Norte 0 1026.5 1.4 72
2017-10-26 21:00:00 20 0 Calma 8 Este 0 1026.1 1.6 75
2017-10-26 20:00:00 20.8 0 Calma 5 Este 0 1025.7 2.7 79
2017-10-26 19:00:00 21.7 0 Calma 11 Este 0 1025.1 2.1 78
2017-10-26 18:00:00 22 3 Este 9 Sudeste 0 1024.5 1.3 78
2017-10-26 17:00:00 23.7 0 Calma 19 Sudeste 0 1023 -0.4 76
2017-10-26 16:00:00 22.3 8 Sudeste 20 Sudeste 0 1023 -1.3 80
2017-10-26 15:00:00 22.4 8 Sudeste 15 Sudeste 0 1023.2 -1.9 77
2017-10-26 14:00:00 22.8 8 Sudeste 18 Sudeste 0 1023.4 -1.4 73
2017-10-26 13:00:00 22.8 7 Sudeste 14 Sudeste 0 1024.3 0.2 67
2017-10-26 12:00:00 23.6 4 Sudeste 11 Sudeste 0 1025.1 0.3 50
2017-10-26 11:00:00 23.8 5 Sudeste 11 Sudeste 0 1024.8 0.5 45
2017-10-26 10:00:00 25.5 2 Este 14 Este 0 1024.1 -0.8 35
2017-10-26 09:00:00 22.9 5 Nordeste 10 Nordeste 0 1024.8 -0.2 39
2017-10-26 08:00:00 21 0 Calma 21 Este 0 1024.3 -0.2 44
2017-10-26 07:00:00 19.5 11 Este 25 Este 0 1024.9 0.6 44
2017-10-26 06:00:00 18.9 10 Nordeste 23 Este 0 1025 0.6 46
2017-10-26 05:00:00 20.5 6 Este 16 Nordeste 0 1024.5 -0.2 44
2017-10-26 04:00:00 21 5 Nordeste 17 Norte 0 1024.3 -0.5 44
2017-10-26 03:00:00 21.5 6 Norte 17 Norte 0 1024.4 -0.5 44
2017-10-26 02:00:00 21.7 6 Nordeste 13 Norte 0 1024.7 -0.4 44
2017-10-26 01:00:00 21.5 6 Nordeste 20 Este 0 1024.8 -0.2 45
2017-10-26 00:00:00 22.3 8 Norte 15 Norte 0 1024.9 0.2 43